createdAt,value
2017-09-29T00:00:07.207Z,15.80
2017-09-29T00:02:34.710Z,15.80
2017-09-29T00:05:02.158Z,15.80
2017-09-29T00:07:29.656Z,15.90
2017-09-29T00:09:57.120Z,15.80
2017-09-29T00:12:24.582Z,15.80
2017-09-29T00:14:52.022Z,15.80
2017-09-29T00:17:19.464Z,15.80
2017-09-29T00:19:46.938Z,15.80
2017-09-29T00:22:14.394Z,15.80
2017-09-29T00:24:41.841Z,15.80
2017-09-29T00:27:09.304Z,15.80
2017-09-29T00:29:36.755Z,15.80
2017-09-29T00:32:04.195Z,15.80
2017-09-29T00:34:31.699Z,15.80
2017-09-29T00:36:59.140Z,15.80
2017-09-29T00:39:26.587Z,15.80
2017-09-29T00:41:54.039Z,15.80
2017-09-29T00:44:21.481Z,15.80
2017-09-29T00:46:48.916Z,15.80
2017-09-29T00:49:17.231Z,15.90
2017-09-29T00:51:44.675Z,15.90
2017-09-29T00:54:12.147Z,16.10
2017-09-29T00:56:39.599Z,16.10
2017-09-29T00:59:07.048Z,16.10
2017-09-29T01:01:34.517Z,16.10
2017-09-29T01:04:02.627Z,16.10
2017-09-29T01:06:30.075Z,16.10
2017-09-29T01:08:57.511Z,16.20
2017-09-29T01:11:24.952Z,16.10
2017-09-29T01:13:52.408Z,16.00
2017-09-29T01:16:19.863Z,16.00
2017-09-29T01:18:47.314Z,16.00
2017-09-29T01:21:14.792Z,16.00
2017-09-29T01:23:42.233Z,16.00
2017-09-29T01:26:09.691Z,16.00
2017-09-29T01:28:37.132Z,16.00
2017-09-29T01:31:04.603Z,16.10
2017-09-29T01:33:32.062Z,16.10
2017-09-29T01:35:59.620Z,16.20
2017-09-29T01:38:27.055Z,16.20
2017-09-29T01:40:54.526Z,16.20
2017-09-29T01:43:21.978Z,16.20
2017-09-29T01:45:49.443Z,16.30
2017-09-29T01:48:16.911Z,16.20
2017-09-29T01:50:44.351Z,16.30
2017-09-29T01:53:11.813Z,16.30
2017-09-29T01:55:39.273Z,16.40
2017-09-29T01:58:06.845Z,16.30
2017-09-29T02:00:34.266Z,16.30
2017-09-29T02:03:01.759Z,16.30
2017-09-29T02:05:29.982Z,16.30
2017-09-29T02:07:57.426Z,16.30
2017-09-29T02:10:24.867Z,16.30
2017-09-29T02:12:53.116Z,16.30
2017-09-29T02:15:20.540Z,16.30
2017-09-29T02:17:47.987Z,16.30
2017-09-29T02:20:15.465Z,16.50
2017-09-29T02:22:42.918Z,16.50
2017-09-29T02:25:10.378Z,16.40
2017-09-29T02:27:37.822Z,16.30
2017-09-29T02:30:05.254Z,16.20
2017-09-29T02:32:32.739Z,16.10
2017-09-29T02:35:00.184Z,16.10
2017-09-29T02:37:27.668Z,16.10
2017-09-29T02:39:55.111Z,15.90
2017-09-29T02:42:22.564Z,15.90
2017-09-29T02:44:50.006Z,15.90
2017-09-29T02:47:17.453Z,15.90
2017-09-29T02:49:44.895Z,15.80
2017-09-29T02:52:12.347Z,15.80
2017-09-29T02:54:39.851Z,15.80
2017-09-29T02:57:07.742Z,15.80
2017-09-29T02:59:36.113Z,15.80
2017-09-29T03:02:03.924Z,15.70
2017-09-29T03:04:32.117Z,15.80
2017-09-29T03:06:59.673Z,15.80
2017-09-29T03:09:27.111Z,15.70
2017-09-29T03:11:54.602Z,15.70
2017-09-29T03:14:22.054Z,15.80
2017-09-29T03:16:49.510Z,15.70
2017-09-29T03:19:16.982Z,15.70
2017-09-29T03:21:44.418Z,15.70
2017-09-29T03:24:11.894Z,15.80
2017-09-29T03:26:39.334Z,15.80
2017-09-29T03:29:06.795Z,15.80
2017-09-29T03:31:34.239Z,15.80
2017-09-29T03:34:01.682Z,15.70
2017-09-29T03:36:29.143Z,15.70
2017-09-29T03:38:56.575Z,15.70
2017-09-29T03:41:24.020Z,15.70
2017-09-29T03:43:51.647Z,15.70
2017-09-29T03:46:19.198Z,15.70
2017-09-29T03:48:46.648Z,15.70
2017-09-29T03:51:15.268Z,15.80
2017-09-29T03:53:43.805Z,15.70
2017-09-29T03:56:12.644Z,15.70
2017-09-29T03:58:40.455Z,15.70
2017-09-29T04:01:07.934Z,15.70
2017-09-29T04:03:35.375Z,15.70
2017-09-29T04:06:02.829Z,15.70
2017-09-29T04:08:30.287Z,15.70
2017-09-29T04:10:57.762Z,15.70
2017-09-29T04:13:25.217Z,15.70
2017-09-29T04:15:52.682Z,15.80
2017-09-29T04:18:20.127Z,15.70
2017-09-29T04:20:47.762Z,15.80
2017-09-29T04:23:15.187Z,15.80
2017-09-29T04:25:43.412Z,15.70
2017-09-29T04:28:10.878Z,15.70
2017-09-29T04:30:38.327Z,15.70
2017-09-29T04:33:05.772Z,15.70
2017-09-29T04:35:33.208Z,15.60
2017-09-29T04:38:00.698Z,15.60
2017-09-29T04:40:28.154Z,15.60
2017-09-29T04:42:55.585Z,15.60
2017-09-29T04:45:23.031Z,15.60
2017-09-29T04:47:50.484Z,15.60
2017-09-29T04:50:17.922Z,15.60
2017-09-29T04:52:46.149Z,15.50
2017-09-29T04:55:13.591Z,15.50
2017-09-29T04:57:41.244Z,15.50
2017-09-29T05:00:08.736Z,15.60
2017-09-29T05:02:36.175Z,15.60
2017-09-29T05:05:03.647Z,15.60
2017-09-29T05:07:31.092Z,15.70
2017-09-29T05:09:58.531Z,15.70
2017-09-29T05:12:26.108Z,15.70
2017-09-29T05:14:53.573Z,15.70
2017-09-29T05:17:21.011Z,15.70
2017-09-29T05:19:48.471Z,15.60
2017-09-29T05:22:16.018Z,15.70
2017-09-29T05:24:43.453Z,15.70
2017-09-29T05:27:11.075Z,15.70
2017-09-29T05:29:38.561Z,15.70
2017-09-29T05:32:06.010Z,15.80
2017-09-29T05:34:34.217Z,15.80
2017-09-29T05:37:01.667Z,15.80
2017-09-29T05:39:29.099Z,15.90
2017-09-29T05:41:56.724Z,15.90
2017-09-29T05:44:24.276Z,15.90
2017-09-29T05:46:51.713Z,15.90
2017-09-29T05:49:19.158Z,15.90
2017-09-29T05:51:46.611Z,15.90
2017-09-29T05:54:14.056Z,15.80
2017-09-29T05:56:41.551Z,15.80
2017-09-29T05:59:09.048Z,15.80
2017-09-29T06:01:36.547Z,15.80
2017-09-29T06:04:04.236Z,15.80
2017-09-29T06:06:31.988Z,15.80
2017-09-29T06:08:59.506Z,15.80
2017-09-29T06:11:27.712Z,15.90
2017-09-29T06:13:55.143Z,15.80
2017-09-29T06:16:22.615Z,15.90
2017-09-29T06:18:50.054Z,16.00
2017-09-29T06:21:17.522Z,15.90
2017-09-29T06:23:44.960Z,15.90
2017-09-29T06:26:12.453Z,16.00
2017-09-29T06:28:39.894Z,16.00
2017-09-29T06:31:07.347Z,16.10
2017-09-29T06:33:34.784Z,16.20
2017-09-29T06:36:02.239Z,16.30
2017-09-29T06:38:29.691Z,16.20
2017-09-29T06:40:57.127Z,16.10
2017-09-29T06:43:24.659Z,16.10
2017-09-29T06:45:52.094Z,16.10
2017-09-29T06:48:19.652Z,16.20
2017-09-29T06:50:47.282Z,16.30
2017-09-29T06:53:14.745Z,16.30
2017-09-29T06:55:42.236Z,16.40
2017-09-29T06:58:09.666Z,16.50
2017-09-29T07:00:37.791Z,16.50
2017-09-29T07:03:05.240Z,16.60
2017-09-29T07:05:33.451Z,16.60
2017-09-29T07:08:00.902Z,16.60
2017-09-29T07:10:28.367Z,16.50
2017-09-29T07:12:55.806Z,16.60
2017-09-29T07:15:23.247Z,16.70
2017-09-29T07:17:50.748Z,16.70
2017-09-29T07:20:18.275Z,16.90
2017-09-29T07:22:45.784Z,17.00
2017-09-29T07:25:14.222Z,17.10
2017-09-29T07:30:45.234Z,16.90
2017-09-29T07:33:13.470Z,16.80
2017-09-29T07:35:40.923Z,16.70
2017-09-29T07:38:08.391Z,16.80
2017-09-29T07:40:35.837Z,16.80
2017-09-29T07:43:03.275Z,16.70
2017-09-29T07:45:30.738Z,16.80
2017-09-29T07:47:58.175Z,16.80
2017-09-29T07:50:25.667Z,16.90
2017-09-29T07:52:53.139Z,16.90
2017-09-29T07:55:20.603Z,16.90
2017-09-29T07:57:48.138Z,16.90
2017-09-29T08:00:15.699Z,16.90
2017-09-29T08:02:43.142Z,16.90
2017-09-29T08:05:10.599Z,16.80
2017-09-29T08:07:38.044Z,16.90
2017-09-29T08:10:05.526Z,17.10
2017-09-29T08:12:33.139Z,17.30
2017-09-29T08:15:00.620Z,17.40
2017-09-29T08:17:28.122Z,17.30
2017-09-29T08:19:55.793Z,17.40
2017-09-29T08:22:25.012Z,17.60
2017-09-29T08:24:52.546Z,17.50
2017-09-29T08:27:19.982Z,17.60
2017-09-29T08:29:48.257Z,17.40
2017-09-29T08:32:15.770Z,17.40
2017-09-29T08:34:43.283Z,17.30
2017-09-29T08:37:10.759Z,17.40
2017-09-29T08:39:38.200Z,17.50
2017-09-29T08:42:05.729Z,17.60
2017-09-29T08:44:33.181Z,17.70
2017-09-29T08:47:00.620Z,17.80
2017-09-29T08:49:28.199Z,17.80
2017-09-29T08:51:55.736Z,17.80
2017-09-29T08:54:23.231Z,17.80
2017-09-29T08:56:50.786Z,17.80
2017-09-29T08:59:18.403Z,17.80
2017-09-29T09:01:45.848Z,17.80
2017-09-29T09:04:14.106Z,18.20
2017-09-29T09:06:41.610Z,18.10
2017-09-29T09:09:09.056Z,18.30
2017-09-29T09:11:36.831Z,18.50
2017-09-29T09:14:04.309Z,18.50
2017-09-29T09:16:32.079Z,18.70
2017-09-29T09:19:00.532Z,18.60
2017-09-29T09:21:27.979Z,18.40
2017-09-29T09:23:55.458Z,18.50
2017-09-29T09:26:22.911Z,18.60
2017-09-29T09:28:50.352Z,18.70
2017-09-29T09:31:17.824Z,18.50
2017-09-29T09:33:45.268Z,18.60
2017-09-29T09:36:12.842Z,18.60
2017-09-29T09:38:40.306Z,18.60
2017-09-29T09:41:07.771Z,18.60
2017-09-29T09:43:35.211Z,18.50
2017-09-29T09:46:02.778Z,18.50
2017-09-29T09:48:30.413Z,18.50
2017-09-29T09:50:57.836Z,18.50
2017-09-29T09:53:25.283Z,18.50
2017-09-29T09:55:53.517Z,18.60
2017-09-29T09:58:20.950Z,18.50
2017-09-29T10:00:48.379Z,18.60
2017-09-29T10:03:16.586Z,18.70
2017-09-29T10:05:44.031Z,18.70
2017-09-29T10:08:11.520Z,18.80
2017-09-29T10:10:38.947Z,18.80
2017-09-29T10:13:06.395Z,18.90
2017-09-29T10:15:33.830Z,19.10
2017-09-29T10:18:02.066Z,19.20
2017-09-29T10:20:29.606Z,19.10
2017-09-29T10:22:57.087Z,19.20
2017-09-29T10:25:24.530Z,19.20
2017-09-29T10:27:51.992Z,19.30
2017-09-29T10:30:19.547Z,19.30
2017-09-29T10:32:47.000Z,19.20
2017-09-29T10:35:14.563Z,19.20
2017-09-29T10:37:42.117Z,19.40
2017-09-29T10:40:09.597Z,19.40
2017-09-29T10:42:37.048Z,19.40
2017-09-29T10:45:04.507Z,19.50
2017-09-29T10:47:32.074Z,19.40
2017-09-29T10:50:00.296Z,19.60
2017-09-29T10:52:27.744Z,19.50
2017-09-29T10:54:55.183Z,19.70
2017-09-29T10:57:23.390Z,19.80
2017-09-29T10:59:50.875Z,19.80
2017-09-29T11:02:18.329Z,19.90
2017-09-29T11:04:45.771Z,19.90
2017-09-29T11:07:13.343Z,20.00
2017-09-29T11:09:40.995Z,19.90
2017-09-29T11:12:08.500Z,19.90
2017-09-29T11:14:36.737Z,19.70
2017-09-29T11:17:04.370Z,19.70
2017-09-29T11:19:31.804Z,19.70
2017-09-29T11:21:59.243Z,19.80
2017-09-29T11:24:27.489Z,20.00
2017-09-29T11:26:54.964Z,20.00
2017-09-29T11:29:22.503Z,20.10
2017-09-29T11:31:49.978Z,20.10
2017-09-29T11:34:18.193Z,20.40
2017-09-29T11:36:45.655Z,20.30
2017-09-29T11:39:13.098Z,20.40
2017-09-29T11:41:40.560Z,20.50
2017-09-29T11:44:08.023Z,20.70
2017-09-29T11:46:35.450Z,20.80
2017-09-29T11:49:02.959Z,20.70
2017-09-29T11:51:30.438Z,20.70
2017-09-29T11:53:57.871Z,20.70
2017-09-29T11:56:25.328Z,20.70
2017-09-29T11:58:53.003Z,20.80
2017-09-29T12:01:20.485Z,20.80
2017-09-29T12:03:48.098Z,20.80
2017-09-29T12:06:15.567Z,20.90
2017-09-29T12:08:43.030Z,20.80
2017-09-29T12:11:10.540Z,20.80
2017-09-29T12:13:37.971Z,20.80
2017-09-29T12:16:05.607Z,20.90
2017-09-29T12:18:33.045Z,21.00
2017-09-29T12:21:00.482Z,21.10
2017-09-29T12:23:27.923Z,21.20
2017-09-29T12:25:55.638Z,21.30
2017-09-29T12:28:23.292Z,21.40
2017-09-29T12:30:50.867Z,21.40
2017-09-29T12:33:18.329Z,21.40
2017-09-29T12:35:46.680Z,21.50
2017-09-29T12:38:14.226Z,21.50
2017-09-29T12:40:41.654Z,21.50
2017-09-29T12:43:09.116Z,21.50
2017-09-29T12:45:37.081Z,21.50
2017-09-29T12:48:04.573Z,21.50
2017-09-29T12:50:32.019Z,21.50
2017-09-29T12:52:59.555Z,21.40
2017-09-29T12:55:26.989Z,21.40
2017-09-29T12:57:54.440Z,21.50
2017-09-29T13:00:22.749Z,21.70
2017-09-29T13:02:50.169Z,21.70
2017-09-29T13:05:17.613Z,21.90
2017-09-29T13:07:45.053Z,21.90
2017-09-29T13:10:12.498Z,22.00
2017-09-29T13:12:39.939Z,21.90
2017-09-29T13:15:07.503Z,21.90
2017-09-29T13:17:35.050Z,22.00
2017-09-29T13:20:02.509Z,22.00
2017-09-29T13:22:29.942Z,22.00
2017-09-29T13:24:57.390Z,22.00
2017-09-29T13:27:24.839Z,22.00
2017-09-29T13:29:53.061Z,22.00
2017-09-29T13:32:20.485Z,21.90
2017-09-29T13:34:47.970Z,22.10
2017-09-29T13:37:15.519Z,22.20
2017-09-29T13:39:42.958Z,22.20
2017-09-29T13:42:10.390Z,22.20
2017-09-29T13:44:38.607Z,22.40
2017-09-29T13:47:06.059Z,22.30
2017-09-29T13:49:34.457Z,22.50
2017-09-29T13:52:01.914Z,22.60
2017-09-29T13:54:29.368Z,22.70
2017-09-29T13:56:56.926Z,22.80
2017-09-29T13:59:24.494Z,22.80
2017-09-29T14:01:52.014Z,22.70
2017-09-29T14:04:19.614Z,22.70
2017-09-29T14:06:47.122Z,22.70
2017-09-29T14:09:14.588Z,22.60
2017-09-29T14:11:42.049Z,22.80
2017-09-29T14:14:09.530Z,22.90
2017-09-29T14:16:36.979Z,22.90
2017-09-29T14:19:04.442Z,22.90
2017-09-29T14:21:31.874Z,22.90
2017-09-29T14:23:59.325Z,23.00
2017-09-29T14:26:26.910Z,22.90
2017-09-29T14:28:54.357Z,22.80
2017-09-29T14:31:21.795Z,22.70
2017-09-29T14:33:49.278Z,22.80
2017-09-29T14:36:16.717Z,22.80
2017-09-29T14:38:44.215Z,23.10
2017-09-29T14:41:11.665Z,23.20
2017-09-29T14:43:39.105Z,23.20
2017-09-29T14:46:06.671Z,23.10
2017-09-29T14:48:34.115Z,23.10
2017-09-29T14:51:01.567Z,23.10
2017-09-29T14:53:29.019Z,23.10
2017-09-29T14:55:56.498Z,23.00
2017-09-29T14:58:23.924Z,22.80
2017-09-29T15:00:51.518Z,22.80
2017-09-29T15:03:19.071Z,22.80
2017-09-29T15:05:46.632Z,22.80
2017-09-29T15:08:14.090Z,23.00
2017-09-29T15:10:41.585Z,23.00
2017-09-29T15:13:09.819Z,22.90
2017-09-29T15:15:38.158Z,22.90
2017-09-29T15:18:05.638Z,22.90
2017-09-29T15:20:33.182Z,23.10
2017-09-29T15:23:00.622Z,22.90
2017-09-29T15:25:28.191Z,22.90
2017-09-29T15:27:55.628Z,22.90
2017-09-29T15:30:23.147Z,22.90
2017-09-29T15:32:50.595Z,23.10
2017-09-29T15:35:18.047Z,23.00
2017-09-29T15:37:45.501Z,23.00
2017-09-29T15:40:12.950Z,23.00
2017-09-29T15:42:40.408Z,23.00
2017-09-29T15:45:07.979Z,22.90
2017-09-29T15:47:35.431Z,22.90
2017-09-29T15:50:02.889Z,22.80
2017-09-29T15:52:30.406Z,22.60
2017-09-29T15:54:57.902Z,22.50
2017-09-29T15:57:25.351Z,22.40
2017-09-29T15:59:52.838Z,22.30
2017-09-29T16:02:20.337Z,22.30
2017-09-29T16:04:47.787Z,22.20
2017-09-29T16:07:15.362Z,22.20
2017-09-29T16:09:42.814Z,22.30
2017-09-29T16:12:10.429Z,22.10
2017-09-29T16:14:38.652Z,22.10
2017-09-29T16:17:06.135Z,22.10
2017-09-29T16:19:33.596Z,22.00
2017-09-29T16:22:01.059Z,21.90
2017-09-29T16:24:28.526Z,21.70
2017-09-29T16:26:55.970Z,21.60
2017-09-29T16:29:23.502Z,21.60
2017-09-29T16:31:50.948Z,21.50
2017-09-29T16:34:18.512Z,21.40
2017-09-29T16:36:46.005Z,21.30
2017-09-29T16:39:13.449Z,21.20
2017-09-29T16:41:40.892Z,21.10
2017-09-29T16:44:08.387Z,21.00
2017-09-29T16:46:35.852Z,21.00
2017-09-29T16:49:03.295Z,20.90
2017-09-29T16:51:30.754Z,20.80
2017-09-29T16:53:58.269Z,20.80
2017-09-29T16:56:25.730Z,20.80
2017-09-29T16:58:53.198Z,20.80
2017-09-29T17:01:20.644Z,20.70
2017-09-29T17:03:48.202Z,20.70
2017-09-29T17:06:15.994Z,20.70
2017-09-29T17:08:43.458Z,20.60
2017-09-29T17:11:10.918Z,20.50
2017-09-29T17:13:38.370Z,20.50
2017-09-29T17:16:05.800Z,20.50
2017-09-29T17:18:33.350Z,20.50
2017-09-29T17:21:00.815Z,20.50
2017-09-29T17:23:28.261Z,20.40
2017-09-29T17:25:55.835Z,20.40
2017-09-29T17:28:23.290Z,20.40
2017-09-29T17:30:50.836Z,20.40
2017-09-29T17:33:18.300Z,20.30
2017-09-29T17:35:45.871Z,20.30
2017-09-29T17:38:13.316Z,20.30
2017-09-29T17:40:40.770Z,20.30
2017-09-29T17:43:08.236Z,20.30
2017-09-29T17:45:35.690Z,20.30
2017-09-29T17:48:03.173Z,20.30
2017-09-29T17:50:30.630Z,20.30
2017-09-29T17:52:58.879Z,20.30
2017-09-29T17:55:26.321Z,20.30
2017-09-29T17:57:53.791Z,20.30
2017-09-29T18:00:21.251Z,20.30
2017-09-29T18:02:48.695Z,20.20
2017-09-29T18:05:16.188Z,20.40
2017-09-29T18:07:44.508Z,20.30
2017-09-29T18:10:12.116Z,20.30
2017-09-29T18:12:39.636Z,20.30
2017-09-29T18:15:07.072Z,20.20
2017-09-29T18:17:34.641Z,20.20
2017-09-29T18:20:02.075Z,20.10
2017-09-29T18:22:30.279Z,20.00
2017-09-29T18:24:57.720Z,20.00
2017-09-29T18:27:25.183Z,19.90
2017-09-29T18:29:52.619Z,19.90
2017-09-29T18:32:20.059Z,19.90
2017-09-29T18:34:48.266Z,19.90
2017-09-29T18:37:15.741Z,19.80
2017-09-29T18:39:43.201Z,19.80
2017-09-29T18:42:10.651Z,19.80
2017-09-29T18:44:40.716Z,19.70
2017-09-29T18:47:10.156Z,19.60
2017-09-29T18:49:37.649Z,19.60
2017-09-29T18:52:05.099Z,19.60
2017-09-29T18:54:32.561Z,19.60
2017-09-29T18:57:00.020Z,19.50
2017-09-29T18:59:27.500Z,19.50
2017-09-29T19:01:55.703Z,19.60
2017-09-29T19:04:23.162Z,19.50
2017-09-29T19:06:50.770Z,19.60
2017-09-29T19:09:18.216Z,19.60
2017-09-29T19:11:45.667Z,19.50
2017-09-29T19:14:13.838Z,19.50
2017-09-29T19:16:41.322Z,19.40
2017-09-29T19:19:08.797Z,19.30
2017-09-29T19:21:37.023Z,19.20
2017-09-29T19:24:04.492Z,19.20
2017-09-29T19:26:31.942Z,19.20
2017-09-29T19:28:59.384Z,19.30
2017-09-29T19:31:27.379Z,19.20
2017-09-29T19:33:54.946Z,19.20
2017-09-29T19:36:22.402Z,19.20
2017-09-29T19:38:49.838Z,19.20
2017-09-29T19:41:17.293Z,19.20
2017-09-29T19:43:44.738Z,19.10
2017-09-29T19:46:12.211Z,19.10
2017-09-29T19:48:39.678Z,19.10
2017-09-29T19:51:07.886Z,19.10
2017-09-29T19:53:35.326Z,19.00
2017-09-29T19:56:03.569Z,19.00
2017-09-29T19:58:31.018Z,19.00
2017-09-29T20:00:58.482Z,19.00
2017-09-29T20:03:25.920Z,19.00
2017-09-29T20:05:53.372Z,19.10
2017-09-29T20:08:20.828Z,19.00
2017-09-29T20:10:48.284Z,18.90
2017-09-29T20:13:15.859Z,18.90
2017-09-29T20:15:43.322Z,18.90
2017-09-29T20:18:10.760Z,18.80
2017-09-29T20:20:38.233Z,18.80
2017-09-29T20:23:05.691Z,18.80
2017-09-29T20:25:33.140Z,18.80
2017-09-29T20:28:00.594Z,18.80
2017-09-29T20:30:28.048Z,18.70
2017-09-29T20:32:55.589Z,18.70
2017-09-29T20:35:23.023Z,18.70
2017-09-29T20:37:50.559Z,18.80
2017-09-29T20:40:18.776Z,18.70
2017-09-29T20:42:46.226Z,18.60
2017-09-29T20:45:13.720Z,18.70
2017-09-29T20:47:41.174Z,18.60
2017-09-29T20:50:08.623Z,18.50
2017-09-29T20:52:36.078Z,18.40
2017-09-29T20:55:03.524Z,18.40
2017-09-29T20:57:30.975Z,18.30
2017-09-29T20:59:58.581Z,18.30
2017-09-29T21:02:26.053Z,18.30
2017-09-29T21:04:54.267Z,18.30
2017-09-29T21:07:21.831Z,18.30
2017-09-29T21:09:49.379Z,18.30
2017-09-29T21:12:16.827Z,18.40
2017-09-29T21:14:44.315Z,18.40
2017-09-29T21:17:11.888Z,18.50
2017-09-29T21:19:39.355Z,18.50
2017-09-29T21:22:06.800Z,18.40
2017-09-29T21:24:34.247Z,18.40
2017-09-29T21:27:01.776Z,18.30
2017-09-29T21:29:29.342Z,18.20
2017-09-29T21:31:56.906Z,18.20
2017-09-29T21:34:24.322Z,18.20
2017-09-29T21:36:51.772Z,18.20
2017-09-29T21:39:19.971Z,18.10
2017-09-29T21:41:47.431Z,18.00
2017-09-29T21:44:15.021Z,18.10
2017-09-29T21:46:42.455Z,18.00
2017-09-29T21:49:09.906Z,17.90
2017-09-29T21:51:37.378Z,17.90
2017-09-29T21:54:04.840Z,17.90
2017-09-29T21:56:32.282Z,17.80
2017-09-29T21:59:00.606Z,17.70
2017-09-29T22:01:28.828Z,17.70
2017-09-29T22:03:56.271Z,17.60
2017-09-29T22:06:23.742Z,17.60
2017-09-29T22:08:51.209Z,17.60
2017-09-29T22:11:18.658Z,17.60
2017-09-29T22:13:46.154Z,17.60
2017-09-29T22:16:13.606Z,17.60
2017-09-29T22:18:41.050Z,17.50
2017-09-29T22:21:08.487Z,17.50
2017-09-29T22:23:36.039Z,17.50
2017-09-29T22:26:03.488Z,17.50
2017-09-29T22:28:31.566Z,17.50
2017-09-29T22:30:59.043Z,17.40
2017-09-29T22:33:26.505Z,17.40
2017-09-29T22:35:54.064Z,17.50
2017-09-29T22:38:21.624Z,17.40
2017-09-29T22:40:49.071Z,17.40
2017-09-29T22:45:50.351Z,17.40
2017-09-29T22:48:17.790Z,17.40
2017-09-29T22:50:45.335Z,17.40
2017-09-29T22:53:13.025Z,17.40
2017-09-29T22:55:40.458Z,17.30
2017-09-29T22:58:07.907Z,17.20
2017-09-29T23:00:35.355Z,17.20
2017-09-29T23:03:02.803Z,17.10
2017-09-29T23:05:30.305Z,17.10
2017-09-29T23:07:57.810Z,17.00
2017-09-29T23:10:25.250Z,17.10
2017-09-29T23:12:52.722Z,17.00
2017-09-29T23:15:20.183Z,16.90
2017-09-29T23:17:48.419Z,16.90
2017-09-29T23:20:15.858Z,16.90
2017-09-29T23:22:43.307Z,16.90
2017-09-29T23:25:10.811Z,16.90
2017-09-29T23:27:38.234Z,16.80
2017-09-29T23:30:05.892Z,16.80
2017-09-29T23:32:33.420Z,16.70
2017-09-29T23:35:00.913Z,16.70
2017-09-29T23:37:28.459Z,16.70
2017-09-29T23:39:55.922Z,16.70
2017-09-29T23:42:23.367Z,16.70
2017-09-29T23:44:50.832Z,16.70
2017-09-29T23:47:18.355Z,16.60
2017-09-29T23:49:45.842Z,16.60
2017-09-29T23:52:13.281Z,16.50
2017-09-29T23:54:40.726Z,16.50
2017-09-29T23:57:08.164Z,16.50
2017-09-29T23:59:35.624Z,16.50
